Time;durP1;ratioP1;P1;durP2;ratioP2;P2;SDS_P1;SDS_P2;PMS_P1;PMS_P2;Temp;Humidity;BMP_temperature;BMP_pressure;BME280_temperature;BME280_humidity;BME280_pressure;Samples;Min_cycle;Max_cycle;Signal;HPM_P1;HPM_P2
2023/10/30 00:01:16;;;;;;;13.80;3.40;;;10.40;94.10;;;;;;5013996;28;20057;-76
2023/10/30 00:03:41;;;;;;;12.48;3.40;;;10.40;94.00;;;;;;5013343;28;20056;-73
2023/10/30 00:06:07;;;;;;;12.20;3.63;;;10.40;93.90;;;;;;5013223;28;20057;-75
2023/10/30 00:08:33;;;;;;;15.18;3.50;;;10.40;94.00;;;;;;5013209;28;20042;-77
2023/10/30 00:10:58;;;;;;;13.25;3.65;;;10.40;94.20;;;;;;5013236;28;20041;-75
2023/10/30 00:13:24;;;;;;;15.70;3.38;;;10.40;94.30;;;;;;5012600;28;20124;-77
2023/10/30 00:15:50;;;;;;;13.25;3.47;;;10.40;94.40;;;;;;5015420;28;20135;-76
2023/10/30 00:18:16;;;;;;;15.55;3.97;;;10.40;94.30;;;;;;5010387;28;20407;-77
2023/10/30 00:20:41;;;;;;;14.60;3.17;;;10.50;94.30;;;;;;5012702;28;20060;-78
2023/10/30 00:23:07;;;;;;;18.98;4.63;;;10.40;94.20;;;;;;5012163;28;20064;-77
2023/10/30 00:25:33;;;;;;;14.80;4.38;;;10.50;94.10;;;;;;5015393;28;20076;-78
2023/10/30 00:28:00;;;;;;;19.33;4.78;;;10.40;93.90;;;;;;5005885;28;20177;-78
2023/10/30 00:30:28;;;;;;;14.45;3.80;;;10.40;94.00;;;;;;5015050;28;20044;-74
2023/10/30 00:32:54;;;;;;;14.13;3.20;;;10.50;93.90;;;;;;5009789;28;20038;-76
2023/10/30 00:35:20;;;;;;;11.95;3.00;;;10.50;94.00;;;;;;5013032;28;20037;-77
2023/10/30 00:37:45;;;;;;;10.93;2.90;;;10.40;93.90;;;;;;5012842;28;20052;-78
2023/10/30 00:40:12;;;;;;;13.10;3.45;;;10.50;93.80;;;;;;5015226;28;20029;-77
2023/10/30 00:42:37;;;;;;;8.52;2.95;;;10.50;93.70;;;;;;5012753;28;20136;-76
2023/10/30 00:45:06;;;;;;;12.68;3.00;;;10.50;93.60;;;;;;5016800;28;20124;-76
2023/10/30 00:47:34;;;;;;;14.63;3.17;;;10.50;93.50;;;;;;5015198;28;20160;-75
2023/10/30 00:50:00;;;;;;;14.77;3.28;;;10.50;93.50;;;;;;5014527;28;20356;-75
2023/10/30 00:52:26;;;;;;;14.68;3.40;;;10.50;93.50;;;;;;5009047;28;20107;-74
2023/10/30 00:54:53;;;;;;;13.27;2.90;;;10.50;93.40;;;;;;5011663;28;21060;-77
2023/10/30 00:57:19;;;;;;;12.00;2.80;;;10.50;93.50;;;;;;5008669;28;20033;-76
2023/10/30 00:59:45;;;;;;;14.77;3.05;;;10.50;93.50;;;;;;5013571;28;20033;-76
2023/10/30 01:02:10;;;;;;;13.23;3.00;;;10.50;93.40;;;;;;5007900;28;20044;-76
2023/10/30 01:04:36;;;;;;;12.25;3.10;;;10.50;93.50;;;;;;5014689;28;20112;-74
2023/10/30 01:07:02;;;;;;;14.20;2.97;;;10.50;93.60;;;;;;5007602;28;20049;-77
2023/10/30 01:09:28;;;;;;;12.20;3.40;;;10.40;93.50;;;;;;5015009;28;20022;-74
2023/10/30 01:11:54;;;;;;;11.93;3.08;;;10.50;93.60;;;;;;5011969;28;20041;-75
2023/10/30 01:14:19;;;;;;;16.92;3.13;;;10.40;93.60;;;;;;5022772;28;20084;-77
2023/10/30 01:16:45;;;;;;;15.55;3.53;;;10.40;93.60;;;;;;5016276;28;20037;-75
2023/10/30 01:19:11;;;;;;;12.82;3.38;;;10.40;93.60;;;;;;5007681;28;20451;-75
2023/10/30 01:21:37;;;;;;;13.73;2.60;;;10.40;93.60;;;;;;5015341;28;20083;-75
2023/10/30 01:24:05;;;;;;;13.40;3.42;;;10.40;93.60;;;;;;5010904;28;20725;-75
2023/10/30 01:26:30;;;;;;;12.98;3.00;;;10.40;93.70;;;;;;5013792;28;20046;-76
2023/10/30 01:28:56;;;;;;;9.80;2.90;;;10.40;93.70;;;;;;5013053;28;20087;-76
2023/10/30 01:31:27;;;;;;;14.98;3.92;;;10.40;93.70;;;;;;5011988;28;20601;-74
2023/10/30 01:33:53;;;;;;;12.60;3.17;;;10.40;93.80;;;;;;5011854;28;20513;-75
2023/10/30 01:36:19;;;;;;;15.25;3.33;;;10.40;93.90;;;;;;5005706;28;20100;-77
2023/10/30 01:38:44;;;;;;;15.27;3.08;;;10.30;93.90;;;;;;5010660;28;20502;-76
2023/10/30 01:41:10;;;;;;;11.13;3.00;;;10.30;94.10;;;;;;5015427;28;20048;-77
2023/10/30 01:43:36;;;;;;;17.08;5.32;;;10.30;94.10;;;;;;5015855;28;20141;-74
2023/10/30 01:46:02;;;;;;;15.32;3.40;;;10.30;94.30;;;;;;5013536;28;20057;-77
2023/10/30 01:48:32;;;;;;;9.60;2.80;;;10.30;94.30;;;;;;5012646;28;20037;-78
2023/10/30 01:51:00;;;;;;;12.30;3.03;;;10.30;94.30;;;;;;5016999;28;20043;-74
2023/10/30 01:53:27;;;;;;;11.13;3.20;;;10.30;94.50;;;;;;5030645;28;20087;-76
2023/10/30 01:55:54;;;;;;;16.38;3.40;;;10.30;94.50;;;;;;5010381;28;20036;-76
2023/10/30 01:58:22;;;;;;;14.13;3.60;;;10.30;94.60;;;;;;5010737;28;20402;-76
2023/10/30 02:00:48;;;;;;;14.88;3.17;;;10.30;94.60;;;;;;5017302;28;20088;-77
2023/10/30 02:03:14;;;;;;;10.70;2.85;;;10.30;94.60;;;;;;5015450;28;20117;-77
2023/10/30 02:05:40;;;;;;;13.80;3.92;;;10.30;94.70;;;;;;5011506;28;20244;-76
2023/10/30 02:08:07;;;;;;;16.63;4.03;;;10.30;94.70;;;;;;5015818;28;20041;-78
2023/10/30 02:10:33;;;;;;;17.95;3.58;;;10.20;94.70;;;;;;5014267;28;20050;-76
2023/10/30 02:12:59;;;;;;;15.38;3.35;;;10.20;94.70;;;;;;5015960;28;20545;-76
2023/10/30 02:15:24;;;;;;;12.75;3.70;;;10.20;94.80;;;;;;5017849;28;20030;-75
2023/10/30 02:17:50;;;;;;;11.38;3.88;;;10.20;94.80;;;;;;5015482;28;20042;-75
2023/10/30 02:20:15;;;;;;;16.02;3.35;;;10.10;94.90;;;;;;5015456;28;20026;-76
2023/10/30 02:22:41;;;;;;;13.88;4.32;;;10.10;95.00;;;;;;5017740;28;20431;-77
2023/10/30 02:25:08;;;;;;;12.88;3.13;;;10.10;95.00;;;;;;5015040;28;20044;-76
2023/10/30 02:27:33;;;;;;;10.88;2.67;;;10.10;95.20;;;;;;5007432;28;20065;-76
2023/10/30 02:29:59;;;;;;;13.23;3.35;;;10.10;95.30;;;;;;5018695;28;20473;-76
2023/10/30 02:32:24;;;;;;;13.23;3.67;;;10.00;95.30;;;;;;5017671;28;20046;-76
2023/10/30 02:34:50;;;;;;;11.63;3.47;;;10.10;95.40;;;;;;5018701;28;20037;-74
2023/10/30 02:37:16;;;;;;;14.63;3.67;;;10.10;95.50;;;;;;5014619;28;20037;-77
2023/10/30 02:39:41;;;;;;;15.57;3.60;;;10.20;95.90;;;;;;5013979;28;20042;-74
2023/10/30 02:42:08;;;;;;;14.82;3.50;;;10.20;95.90;;;;;;5014021;28;20569;-76
2023/10/30 02:44:34;;;;;;;14.07;3.45;;;10.30;95.90;;;;;;5018425;28;20083;-75
2023/10/30 02:46:59;;;;;;;14.88;3.60;;;10.30;95.80;;;;;;5012832;28;20066;-77
2023/10/30 02:49:25;;;;;;;13.27;3.40;;;10.30;95.90;;;;;;5014572;28;20038;-77
2023/10/30 02:51:51;;;;;;;12.55;3.63;;;10.30;95.90;;;;;;5015165;28;20532;-73
2023/10/30 02:54:17;;;;;;;16.70;3.75;;;10.20;96.00;;;;;;5018635;28;20039;-74
2023/10/30 02:56:43;;;;;;;14.13;3.85;;;10.20;96.10;;;;;;5011438;28;20055;-77
2023/10/30 02:59:08;;;;;;;17.23;4.03;;;10.30;96.20;;;;;;5021710;28;20029;-78
2023/10/30 03:01:34;;;;;;;14.02;3.63;;;10.30;96.20;;;;;;5014798;28;20037;-78
2023/10/30 03:04:03;;;;;;;16.92;3.55;;;10.30;96.30;;;;;;5015155;28;20479;-76
2023/10/30 03:06:28;;;;;;;17.85;3.67;;;10.30;96.40;;;;;;5010778;28;20516;-77
2023/10/30 03:08:54;;;;;;;12.23;3.83;;;10.30;96.60;;;;;;5016414;28;20052;-77
2023/10/30 03:11:20;;;;;;;16.27;3.65;;;10.40;96.60;;;;;;5017255;28;20034;-76
2023/10/30 03:13:46;;;;;;;18.92;3.92;;;10.40;96.60;;;;;;5017825;28;20049;-76
2023/10/30 03:16:11;;;;;;;16.00;3.72;;;10.40;96.60;;;;;;5009715;28;20038;-76
2023/10/30 03:18:38;;;;;;;16.75;4.10;;;10.40;96.50;;;;;;5017355;28;20233;-76
2023/10/30 03:21:04;;;;;;;14.60;3.88;;;10.50;96.60;;;;;;5009828;28;20045;-78
2023/10/30 03:23:29;;;;;;;14.02;3.58;;;10.40;96.60;;;;;;5014079;28;20409;-76
2023/10/30 03:25:55;;;;;;;16.80;4.05;;;10.50;96.70;;;;;;5016063;28;20037;-77
2023/10/30 03:28:21;;;;;;;19.30;4.22;;;10.50;96.70;;;;;;5013584;28;20135;-77
2023/10/30 03:30:46;;;;;;;19.10;3.97;;;10.50;96.70;;;;;;5011407;28;20033;-76
2023/10/30 03:33:12;;;;;;;13.18;3.85;;;10.50;96.70;;;;;;5010763;28;20494;-75
2023/10/30 03:35:39;;;;;;;14.45;3.35;;;10.50;96.80;;;;;;5019723;28;20072;-76
2023/10/30 03:38:04;;;;;;;17.35;4.65;;;10.50;96.90;;;;;;5016414;28;20041;-75
2023/10/30 03:40:31;;;;;;;14.55;4.00;;;10.50;96.90;;;;;;5012833;28;20034;-77
2023/10/30 03:42:57;;;;;;;17.48;3.78;;;10.50;96.90;;;;;;5017106;28;20060;-75
2023/10/30 03:45:22;;;;;;;14.07;3.92;;;10.60;97.00;;;;;;5015811;28;20037;-74
2023/10/30 03:47:48;;;;;;;15.38;3.85;;;10.60;97.00;;;;;;5016860;28;20022;-77
2023/10/30 03:50:14;;;;;;;20.10;3.88;;;10.60;97.00;;;;;;5014323;28;20121;-75
2023/10/30 03:52:44;;;;;;;20.42;4.55;;;10.60;97.10;;;;;;5018565;28;20088;-76
2023/10/30 03:55:10;;;;;;;23.48;4.43;;;10.60;96.90;;;;;;5013848;28;20459;-76
2023/10/30 03:57:35;;;;;;;20.00;4.25;;;10.70;97.00;;;;;;5019271;28;20252;-75
2023/10/30 04:00:03;;;;;;;20.65;3.85;;;10.70;97.10;;;;;;5006869;28;20411;-74
2023/10/30 04:02:29;;;;;;;13.18;3.40;;;10.70;97.10;;;;;;5015949;28;20037;-74
2023/10/30 04:04:55;;;;;;;18.45;4.53;;;10.70;97.10;;;;;;5014786;28;20087;-74
2023/10/30 04:07:20;;;;;;;19.15;4.00;;;10.70;97.30;;;;;;5016504;28;20030;-76
2023/10/30 04:09:46;;;;;;;18.92;3.92;;;10.70;97.40;;;;;;5018110;28;20120;-78
2023/10/30 04:12:12;;;;;;;20.33;4.75;;;10.80;97.50;;;;;;5015785;28;20053;-75
2023/10/30 04:14:38;;;;;;;18.13;3.85;;;10.80;97.60;;;;;;5016601;28;20059;-76
2023/10/30 04:17:04;;;;;;;13.57;3.80;;;10.90;97.70;;;;;;5018237;28;20116;-75
2023/10/30 04:19:30;;;;;;;26.92;5.65;;;11.00;97.60;;;;;;5019685;28;20117;-74
2023/10/30 04:21:56;;;;;;;18.27;3.72;;;11.00;97.70;;;;;;5014633;28;20103;-77
2023/10/30 04:24:22;;;;;;;16.77;4.43;;;11.00;97.70;;;;;;5014350;28;20943;-73
2023/10/30 04:26:48;;;;;;;18.38;4.68;;;11.00;97.80;;;;;;5005720;28;20046;-78
2023/10/30 04:29:13;;;;;;;18.02;4.25;;;11.10;97.80;;;;;;5025861;28;20419;-77
2023/10/30 04:31:39;;;;;;;17.00;3.85;;;11.00;97.80;;;;;;5009105;28;20036;-76
2023/10/30 04:34:05;;;;;;;15.85;3.67;;;11.10;97.80;;;;;;5012090;28;20048;-79
2023/10/30 04:36:30;;;;;;;24.95;5.05;;;11.10;97.80;;;;;;5014558;28;20470;-76
2023/10/30 04:38:56;;;;;;;16.73;4.50;;;11.10;97.90;;;;;;5010302;28;20108;-77
2023/10/30 04:41:22;;;;;;;19.90;4.00;;;11.10;97.90;;;;;;5005640;28;20033;-77
2023/10/30 04:43:47;;;;;;;16.77;4.25;;;11.10;97.90;;;;;;5010175;28;20029;-75
2023/10/30 04:46:14;;;;;;;17.65;4.13;;;11.20;97.90;;;;;;5013385;28;20037;-78
2023/10/30 04:48:39;;;;;;;12.95;3.35;;;11.20;98.00;;;;;;5014287;28;20022;-74
2023/10/30 04:51:05;;;;;;;20.25;4.65;;;11.20;97.90;;;;;;5009941;28;20397;-76
2023/10/30 04:53:30;;;;;;;11.70;3.17;;;11.20;97.90;;;;;;5016382;28;20050;-76
2023/10/30 04:55:57;;;;;;;18.27;3.92;;;11.20;97.90;;;;;;5013843;28;20491;-74
2023/10/30 04:58:22;;;;;;;17.17;4.22;;;11.20;97.80;;;;;;5006196;28;20122;-77
2023/10/30 05:00:48;;;;;;;12.77;3.58;;;11.20;97.90;;;;;;5010414;28;20479;-75
2023/10/30 05:03:14;;;;;;;16.05;3.75;;;11.20;97.80;;;;;;5007823;28;20087;-75
2023/10/30 05:05:40;;;;;;;14.93;4.05;;;11.30;97.90;;;;;;5007019;28;20340;-77
2023/10/30 05:08:05;;;;;;;11.85;3.55;;;11.30;97.90;;;;;;5015683;28;20120;-76
2023/10/30 05:10:31;;;;;;;12.88;4.10;;;11.30;97.80;;;;;;5009698;28;20053;-74
2023/10/30 05:12:57;;;;;;;19.60;4.88;;;11.30;97.70;;;;;;5009629;28;20443;-74
2023/10/30 05:15:23;;;;;;;16.88;3.65;;;11.30;97.60;;;;;;5002474;28;20168;-74
2023/10/30 05:17:49;;;;;;;18.15;3.78;;;11.30;97.60;;;;;;5008750;28;20537;-76
2023/10/30 05:20:15;;;;;;;12.77;3.28;;;11.30;97.70;;;;;;5012755;28;20041;-77
2023/10/30 05:22:43;;;;;;;15.73;4.03;;;11.30;97.60;;;;;;5013156;28;20448;-76
2023/10/30 05:25:09;;;;;;;11.55;3.70;;;11.30;97.60;;;;;;5015257;28;20038;-76
2023/10/30 05:27:34;;;;;;;18.02;3.72;;;11.30;97.60;;;;;;5014805;28;20083;-74
2023/10/30 05:30:00;;;;;;;15.07;3.80;;;11.30;97.60;;;;;;5018248;28;20034;-75
2023/10/30 05:32:26;;;;;;;17.63;4.30;;;11.40;97.60;;;;;;5013460;28;20049;-76
2023/10/30 05:34:55;;;;;;;16.73;4.30;;;11.30;97.50;;;;;;5018759;28;20655;-74
2023/10/30 05:37:21;;;;;;;16.92;4.15;;;11.30;97.50;;;;;;5017944;28;20037;-74
2023/10/30 05:39:49;;;;;;;17.52;4.30;;;11.30;97.50;;;;;;5016586;28;20112;-74
2023/10/30 05:42:15;;;;;;;14.90;4.18;;;11.40;97.50;;;;;;5019124;28;20629;-75
2023/10/30 05:44:41;;;;;;;17.33;4.07;;;11.40;97.50;;;;;;5011081;28;20109;-76
2023/10/30 05:47:07;;;;;;;18.30;4.15;;;11.30;97.50;;;;;;5016830;28;20125;-76
2023/10/30 05:49:32;;;;;;;15.73;4.50;;;11.40;97.50;;;;;;5019349;28;20036;-76
2023/10/30 05:51:58;;;;;;;13.35;4.32;;;11.50;97.50;;;;;;5011340;28;20048;-77
2023/10/30 05:54:24;;;;;;;16.55;4.88;;;11.40;97.40;;;;;;5018231;28;20029;-77
2023/10/30 05:56:49;;;;;;;15.68;3.80;;;11.50;97.20;;;;;;5017361;28;20033;-77
2023/10/30 05:59:15;;;;;;;18.67;3.80;;;11.40;97.20;;;;;;5015356;28;20033;-78
2023/10/30 06:01:41;;;;;;;13.65;3.75;;;11.40;97.10;;;;;;5012091;28;20045;-77
2023/10/30 06:04:07;;;;;;;13.95;3.40;;;11.40;97.20;;;;;;5018211;28;20024;-77
2023/10/30 06:06:33;;;;;;;17.33;3.90;;;11.40;97.20;;;;;;5013441;28;20073;-77
2023/10/30 06:08:59;;;;;;;16.75;3.35;;;11.40;97.20;;;;;;5015893;28;20021;-76
2023/10/30 06:11:25;;;;;;;12.75;3.80;;;11.30;97.20;;;;;;5013408;28;20521;-78
2023/10/30 06:13:51;;;;;;;18.85;4.43;;;11.40;97.20;;;;;;5018694;28;20345;-77
2023/10/30 06:16:20;;;;;;;13.93;3.40;;;11.40;97.30;;;;;;5013576;28;20390;-77
2023/10/30 06:18:46;;;;;;;19.25;4.57;;;11.40;97.20;;;;;;5020310;28;20081;-78
2023/10/30 06:21:18;;;;;;;15.95;4.45;;;11.40;97.20;;;;;;5028442;28;20066;-76
2023/10/30 06:23:44;;;;;;;19.02;4.53;;;11.40;97.20;;;;;;5013463;28;20565;-77
2023/10/30 06:26:11;;;;;;;16.70;3.80;;;11.40;97.30;;;;;;5018335;28;20049;-78
2023/10/30 06:28:38;;;;;;;21.00;3.97;;;11.40;97.30;;;;;;5012809;28;20243;-76
2023/10/30 06:31:04;;;;;;;17.38;3.83;;;11.40;97.20;;;;;;5018561;28;20065;-75
2023/10/30 06:33:33;;;;;;;13.73;3.63;;;11.40;97.20;;;;;;5013452;28;20041;-78
2023/10/30 06:36:00;;;;;;;19.00;4.38;;;11.40;97.20;;;;;;5013492;28;20129;-75
2023/10/30 06:38:27;;;;;;;12.00;3.95;;;11.40;97.20;;;;;;5020297;28;20038;-76
2023/10/30 06:40:54;;;;;;;16.77;3.90;;;11.40;97.30;;;;;;5020053;28;20041;-77
2023/10/30 06:43:19;;;;;;;16.02;4.13;;;11.40;97.20;;;;;;5018447;28;20041;-77
2023/10/30 06:45:45;;;;;;;14.52;3.90;;;11.40;97.20;;;;;;5015720;28;20037;-76
2023/10/30 06:48:10;;;;;;;15.95;4.18;;;11.50;97.20;;;;;;5016859;28;20030;-77
2023/10/30 06:50:36;;;;;;;16.27;4.45;;;11.50;97.20;;;;;;5011546;28;20096;-76
2023/10/30 06:53:02;;;;;;;16.73;4.03;;;11.50;97.10;;;;;;5011993;28;20046;-78
2023/10/30 06:55:27;;;;;;;14.75;4.60;;;11.50;97.00;;;;;;5012246;28;20398;-79
2023/10/30 06:57:53;;;;;;;15.15;3.58;;;11.50;97.00;;;;;;5012687;28;20232;-76
2023/10/30 07:00:19;;;;;;;18.50;4.53;;;11.50;97.00;;;;;;5014721;28;20472;-78
2023/10/30 07:02:45;;;;;;;18.77;3.78;;;11.60;97.00;;;;;;5012586;28;20026;-75
2023/10/30 07:05:11;;;;;;;18.67;4.90;;;11.60;96.90;;;;;;5007397;28;20038;-78
2023/10/30 07:07:36;;;;;;;12.80;3.38;;;11.60;96.80;;;;;;5017433;28;20410;-75
2023/10/30 07:10:03;;;;;;;19.80;3.72;;;11.60;96.70;;;;;;5018025;28;20037;-77
2023/10/30 07:12:29;;;;;;;17.63;4.22;;;11.60;96.70;;;;;;5011498;28;20064;-77
2023/10/30 07:14:54;;;;;;;22.17;4.68;;;11.60;96.70;;;;;;5033924;28;20076;-76
2023/10/30 07:17:20;;;;;;;18.58;4.72;;;11.60;96.70;;;;;;5012985;28;20034;-75
2023/10/30 07:19:48;;;;;;;19.88;5.05;;;11.70;96.60;;;;;;5018544;28;20509;-77
2023/10/30 07:22:14;;;;;;;16.10;4.00;;;11.70;96.60;;;;;;5011265;28;20046;-76
2023/10/30 07:24:39;;;;;;;19.55;4.20;;;11.70;96.60;;;;;;5013892;28;20034;-76
2023/10/30 07:27:05;;;;;;;17.13;4.95;;;11.70;96.60;;;;;;5016255;28;20042;-78
2023/10/30 07:29:31;;;;;;;16.05;4.80;;;11.70;96.60;;;;;;5012871;28;20460;-75
2023/10/30 07:31:57;;;;;;;14.20;3.85;;;11.70;96.70;;;;;;5016930;28;20030;-75
2023/10/30 07:34:22;;;;;;;14.88;4.20;;;11.70;96.60;;;;;;5015798;28;20033;-77
2023/10/30 07:36:49;;;;;;;15.65;3.53;;;11.70;96.60;;;;;;5012538;28;20052;-74
2023/10/30 07:39:15;;;;;;;15.95;4.53;;;11.80;96.60;;;;;;5014708;28;20034;-77
2023/10/30 07:41:41;;;;;;;17.88;4.28;;;11.80;96.40;;;;;;5011947;28;20038;-74
2023/10/30 07:44:07;;;;;;;15.45;4.00;;;11.80;96.40;;;;;;5016794;28;20033;-76
2023/10/30 07:46:34;;;;;;;18.67;5.15;;;11.90;96.40;;;;;;5013117;28;20303;-75
2023/10/30 07:49:04;;;;;;;16.38;4.00;;;11.90;96.30;;;;;;5017549;28;20069;-75
2023/10/30 07:51:29;;;;;;;18.85;5.05;;;11.90;96.30;;;;;;5011758;28;20111;-75
2023/10/30 07:53:55;;;;;;;16.23;4.10;;;11.90;96.30;;;;;;5018546;28;20037;-77
2023/10/30 07:56:21;;;;;;;16.27;4.32;;;11.90;96.20;;;;;;5010500;28;20050;-74
2023/10/30 07:58:46;;;;;;;15.73;4.15;;;11.90;96.20;;;;;;5015362;28;20036;-74
2023/10/30 08:01:12;;;;;;;22.10;4.38;;;11.80;96.30;;;;;;5011236;28;20064;-75
2023/10/30 08:03:37;;;;;;;13.77;3.85;;;11.90;96.30;;;;;;5013825;28;20049;-75
2023/10/30 08:06:03;;;;;;;17.25;4.10;;;11.80;96.40;;;;;;5018749;28;20111;-75
2023/10/30 08:08:29;;;;;;;14.60;5.25;;;11.80;96.40;;;;;;5011456;28;20056;-75
2023/10/30 08:10:55;;;;;;;21.45;4.30;;;11.80;96.40;;;;;;5015641;28;20061;-78
2023/10/30 08:13:21;;;;;;;18.83;4.47;;;11.90;96.40;;;;;;5012939;28;20176;-74
2023/10/30 08:15:46;;;;;;;16.98;3.60;;;11.90;96.40;;;;;;5011578;28;20029;-77
2023/10/30 08:18:12;;;;;;;22.45;5.43;;;11.80;96.40;;;;;;5008328;28;20374;-76
2023/10/30 08:20:38;;;;;;;17.10;5.63;;;11.90;96.50;;;;;;5011564;28;20044;-75
2023/10/30 08:23:03;;;;;;;17.45;4.93;;;11.90;96.60;;;;;;5010625;28;20092;-76
2023/10/30 08:25:29;;;;;;;19.05;4.65;;;11.80;96.60;;;;;;5012740;28;20033;-79
2023/10/30 08:27:57;;;;;;;15.75;5.00;;;11.90;96.70;;;;;;5009696;28;20038;-76
2023/10/30 08:30:24;;;;;;;21.88;5.05;;;11.90;96.80;;;;;;5013793;28;20037;-77
2023/10/30 08:32:50;;;;;;;20.00;4.95;;;11.90;96.90;;;;;;5017020;28;20030;-78
2023/10/30 08:35:15;;;;;;;17.35;4.53;;;12.00;97.00;;;;;;5014800;28;20517;-74
2023/10/30 08:37:41;;;;;;;16.95;4.55;;;12.00;97.10;;;;;;5014890;28;20042;-76
2023/10/30 08:40:08;;;;;;;16.45;4.60;;;12.00;97.10;;;;;;5013646;28;20554;-78
2023/10/30 08:42:34;;;;;;;20.25;5.65;;;12.10;97.10;;;;;;5017276;28;20048;-75
2023/10/30 08:44:59;;;;;;;14.40;4.80;;;12.10;97.10;;;;;;5010441;28;20038;-75
2023/10/30 08:47:25;;;;;;;14.85;4.70;;;12.10;97.10;;;;;;5013360;28;20244;-76
2023/10/30 08:49:51;;;;;;;19.30;6.35;;;12.10;97.20;;;;;;5013768;28;20144;-75
2023/10/30 08:52:16;;;;;;;18.08;5.25;;;12.20;97.20;;;;;;5017235;28;20048;-75
2023/10/30 08:54:45;;;;;;;20.63;6.00;;;12.20;97.20;;;;;;5017460;28;20050;-75
2023/10/30 08:57:10;;;;;;;21.92;5.38;;;12.20;97.20;;;;;;5018599;28;20103;-75
2023/10/30 08:59:38;;;;;;;15.35;5.32;;;12.20;97.10;;;;;;5017471;28;20067;-75
2023/10/30 09:02:06;;;;;;;21.05;4.93;;;12.20;97.20;;;;;;5017439;28;20033;-75
2023/10/30 09:04:32;;;;;;;12.30;4.45;;;12.30;97.20;;;;;;5017752;28;20029;-75
2023/10/30 09:06:57;;;;;;;17.90;5.10;;;12.30;97.20;;;;;;5017113;28;20088;-75
2023/10/30 09:09:23;;;;;;;20.70;5.28;;;12.30;97.20;;;;;;5017392;28;20033;-75
2023/10/30 09:11:49;;;;;;;14.02;5.20;;;12.20;97.20;;;;;;5019743;28;20065;-75
2023/10/30 09:14:15;;;;;;;16.40;4.80;;;12.30;97.20;;;;;;5016782;28;20045;-74
2023/10/30 09:16:41;;;;;;;14.43;5.35;;;12.30;97.20;;;;;;5014770;28;20033;-74
2023/10/30 09:19:06;;;;;;;17.33;4.70;;;12.30;97.20;;;;;;5015774;28;20025;-74
2023/10/30 09:21:32;;;;;;;18.88;5.03;;;12.30;97.20;;;;;;5016811;28;20025;-75
2023/10/30 09:23:57;;;;;;;17.67;5.07;;;12.30;97.10;;;;;;5016450;28;20064;-74
2023/10/30 09:26:23;;;;;;;18.58;5.60;;;12.30;97.20;;;;;;5012034;28;20430;-75
2023/10/30 09:28:49;;;;;;;18.15;5.38;;;12.30;97.10;;;;;;5016845;28;20029;-74
2023/10/30 09:31:14;;;;;;;14.65;5.22;;;12.30;97.20;;;;;;5016287;28;20049;-75
2023/10/30 09:33:40;;;;;;;18.95;5.25;;;12.40;97.10;;;;;;5015004;28;20025;-74
2023/10/30 09:36:06;;;;;;;16.98;5.78;;;12.40;97.10;;;;;;5018922;28;20033;-75
2023/10/30 09:38:32;;;;;;;13.77;4.72;;;12.40;97.10;;;;;;5012480;28;20255;-76
2023/10/30 09:41:05;;;;;;;13.05;4.07;;;12.50;97.10;;;;;;5018365;28;20036;-77
2023/10/30 09:43:33;;;;;;;16.17;5.25;;;12.50;97.00;;;;;;5012446;28;20364;-76
2023/10/30 09:46:00;;;;;;;15.57;4.57;;;12.50;96.90;;;;;;5018741;28;20030;-76
2023/10/30 09:48:28;;;;;;;16.35;4.60;;;12.40;97.00;;;;;;5011712;28;20037;-77
2023/10/30 09:50:55;;;;;;;15.05;4.65;;;12.50;97.00;;;;;;5014634;28;20493;-77
2023/10/30 09:53:21;;;;;;;16.92;4.70;;;12.50;97.00;;;;;;5017149;28;20052;-77
2023/10/30 09:55:49;;;;;;;18.55;4.70;;;12.50;97.00;;;;;;5017948;28;20046;-77
2023/10/30 09:58:15;;;;;;;15.82;4.57;;;12.60;97.10;;;;;;5016808;28;20044;-77
2023/10/30 10:00:44;;;;;;;17.02;4.20;;;12.70;96.90;;;;;;5019785;28;20061;-76
2023/10/30 10:03:10;;;;;;;17.05;3.95;;;12.70;96.70;;;;;;5016069;28;20233;-79
2023/10/30 10:05:35;;;;;;;30.35;5.72;;;12.70;96.80;;;;;;5012986;28;20390;-78
2023/10/30 10:08:01;;;;;;;18.15;4.53;;;12.80;96.70;;;;;;5017089;28;20363;-77
2023/10/30 10:10:27;;;;;;;21.52;5.63;;;12.80;96.70;;;;;;5018275;28;20136;-77
2023/10/30 10:12:55;;;;;;;19.48;4.97;;;12.80;96.70;;;;;;5017164;28;20049;-77
2023/10/30 10:15:21;;;;;;;17.48;4.97;;;12.80;96.50;;;;;;4986936;28;20037;-77
2023/10/30 10:17:48;;;;;;;14.88;4.40;;;12.80;96.50;;;;;;4996966;28;20056;-78
2023/10/30 10:20:14;;;;;;;12.70;4.85;;;12.80;96.40;;;;;;5007752;28;20049;-78
2023/10/30 10:22:40;;;;;;;16.10;4.95;;;12.90;96.50;;;;;;5004276;28;20030;-78
2023/10/30 10:25:18;;;;;;;18.77;4.75;;;12.90;96.30;;;;;;4990445;28;20091;-79
2023/10/30 10:27:44;;;;;;;13.40;3.97;;;12.80;96.20;;;;;;5003589;28;20155;-78
2023/10/30 10:30:10;;;;;;;17.02;4.97;;;12.90;96.30;;;;;;5003899;28;20441;-76
2023/10/30 10:32:37;;;;;;;16.50;4.40;;;12.90;96.40;;;;;;5010967;28;20521;-78
2023/10/30 10:35:05;;;;;;;13.55;3.75;;;12.90;96.40;;;;;;5006632;28;20041;-78
2023/10/30 10:37:32;;;;;;;17.52;5.10;;;12.90;96.20;;;;;;4999035;28;20038;-79
2023/10/30 10:39:59;;;;;;;15.25;4.15;;;12.90;96.20;;;;;;5004564;28;20103;-80
2023/10/30 10:42:25;;;;;;;12.68;3.67;;;13.00;96.10;;;;;;5005832;28;20045;-80
2023/10/30 10:44:54;;;;;;;19.08;5.20;;;13.00;96.10;;;;;;5002291;28;20120;-81
2023/10/30 10:47:21;;;;;;;14.95;4.63;;;13.00;96.10;;;;;;5004937;28;20179;-78
2023/10/30 10:49:47;;;;;;;20.60;4.75;;;13.00;96.10;;;;;;5006580;28;20041;-80
2023/10/30 10:52:14;;;;;;;36.47;6.55;;;13.10;96.10;;;;;;5009164;28;20068;-79
2023/10/30 10:54:46;;;;;;;19.08;5.60;;;13.10;96.10;;;;;;5007381;28;20120;-79
2023/10/30 10:57:17;;;;;;;21.63;6.00;;;13.10;96.00;;;;;;5002919;28;20032;-79
2023/10/30 10:59:47;;;;;;;20.50;5.53;;;13.10;95.80;;;;;;5007831;28;20053;-78
2023/10/30 11:02:21;;;;;;;23.73;5.43;;;13.10;95.50;;;;;;5004775;28;20057;-79
2023/10/30 11:04:51;;;;;;;18.13;5.43;;;13.10;95.50;;;;;;5007562;28;20064;-78
2023/10/30 11:07:52;;;;;;;14.88;4.60;;;13.10;95.40;;;;;;5000808;28;20355;-80
2023/10/30 11:10:25;;;;;;;13.18;5.18;;;13.10;95.40;;;;;;5017439;28;20211;-76
2023/10/30 11:13:21;;;;;;;12.85;4.22;;;13.10;95.50;;;;;;5014880;28;20041;-79
2023/10/30 11:15:52;;;;;;;14.32;4.45;;;13.10;95.30;;;;;;5012966;28;20041;-78
2023/10/30 11:18:24;;;;;;;11.25;4.35;;;13.10;95.40;;;;;;5011541;28;20034;-79
2023/10/30 11:21:13;;;;;;;12.02;4.63;;;13.10;95.40;;;;;;5017685;28;20450;-79
2023/10/30 11:23:45;;;;;;;13.20;4.95;;;13.20;95.40;;;;;;5015568;28;20107;-78
2023/10/30 11:26:40;;;;;;;15.57;4.32;;;13.20;95.10;;;;;;5015228;28;20104;-79
2023/10/30 11:29:21;;;;;;;17.25;5.30;;;13.20;95.20;;;;;;5007726;28;20038;-79
2023/10/30 11:31:54;;;;;;;12.35;5.15;;;13.30;95.20;;;;;;5012141;28;20125;-79
2023/10/30 11:34:35;;;;;;;14.63;5.50;;;13.30;94.70;;;;;;5012381;28;20045;-78
2023/10/30 11:37:12;;;;;;;15.32;5.38;;;13.30;94.80;;;;;;5015993;28;20533;-77
2023/10/30 11:39:39;;;;;;;18.08;5.60;;;13.30;94.70;;;;;;5016409;28;20026;-77
2023/10/30 11:42:26;;;;;;;14.73;5.25;;;13.30;94.80;;;;;;5017033;28;20113;-77
2023/10/30 11:44:53;;;;;;;18.25;6.85;;;13.30;94.80;;;;;;5012526;28;20063;-77
2023/10/30 11:47:20;;;;;;;25.33;7.68;;;13.40;95.00;;;;;;5013105;28;20040;-77
2023/10/30 11:49:46;;;;;;;23.60;7.07;;;13.40;95.00;;;;;;5014059;28;20034;-78
2023/10/30 11:52:13;;;;;;;25.83;7.40;;;13.30;94.90;;;;;;5012598;28;20068;-78
2023/10/30 11:54:44;;;;;;;15.38;6.00;;;13.30;95.00;;;;;;5006416;28;20108;-78
2023/10/30 11:57:11;;;;;;;16.88;5.85;;;13.30;94.80;;;;;;5007488;28;20128;-78
2023/10/30 11:59:37;;;;;;;18.13;6.88;;;13.20;94.90;;;;;;5012923;28;20018;-76
2023/10/30 12:02:05;;;;;;;18.67;6.85;;;13.30;95.10;;;;;;5017161;28;20033;-79
2023/10/30 12:04:33;;;;;;;15.25;6.55;;;13.20;95.10;;;;;;5014723;28;20439;-76
2023/10/30 12:06:59;;;;;;;12.77;6.00;;;13.20;95.00;;;;;;5014738;28;20433;-76
2023/10/30 12:09:25;;;;;;;13.40;6.45;;;13.20;95.20;;;;;;5017340;28;20447;-77
2023/10/30 12:11:55;;;;;;;13.20;6.32;;;13.20;95.20;;;;;;5009517;28;20515;-78
2023/10/30 12:14:21;;;;;;;12.65;6.63;;;13.20;95.10;;;;;;5013182;28;20056;-78
2023/10/30 12:16:50;;;;;;;14.02;7.25;;;13.20;95.40;;;;;;5012635;28;20054;-79
2023/10/30 12:19:22;;;;;;;20.02;6.78;;;13.30;95.40;;;;;;5016621;28;20112;-78
2023/10/30 12:21:48;;;;;;;11.25;5.97;;;13.20;95.30;;;;;;5014844;28;20405;-77
2023/10/30 12:24:22;;;;;;;13.35;8.35;;;13.30;95.30;;;;;;5013760;28;20121;-76
2023/10/30 12:26:48;;;;;;;14.57;7.72;;;13.30;95.50;;;;;;5009551;28;20546;-80
2023/10/30 12:29:28;;;;;;;15.35;7.85;;;13.30;95.50;;;;;;5016584;28;20033;-79
2023/10/30 12:32:01;;;;;;;14.27;7.20;;;13.30;95.50;;;;;;5015939;28;20558;-79
2023/10/30 12:34:27;;;;;;;13.07;7.85;;;13.30;95.30;;;;;;5010443;28;20114;-79
2023/10/30 12:36:53;;;;;;;13.55;7.07;;;13.30;95.40;;;;;;5014313;28;20159;-77